This is the latest recevied weather packets stored in our database for station/object WX Beacon. If no packets are shown the sender has not sent any weather packets the latest 1 day(s).
| Time | Temp. | Humidity | Pressure | Rain* | Wind** | Luminosity | Snow |
|---|---|---|---|---|---|---|---|
| 1778105252 | 16.11° C | 78% | 1012.4 hPa | 0 mm | - | - | - |
| 1778101052 | 13.89° C | 86% | 1013.6 hPa | 0 mm | - | - | - |
| 1778095652 | 13.89° C | 83% | 1013.9 hPa | 0 mm | - | - | - |
| 1778092052 | 13.89° C | 84% | 1013.6 hPa | 0 mm | - | - | - |
| 1778089652 | 13.89° C | 84% | 1013.1 hPa | 0 mm | - | - | - |
| 1778088452 | 13.89° C | 84% | 1013.1 hPa | 0 mm | - | - | - |
| 1778087253 | 13.89° C | 84% | 1013.1 hPa | 0 mm | - | - | - |
| 1778081252 | 12.22° C | 84% | 1014.3 hPa | 0 mm | - | - | - |
| 1778080652 | 12.22° C | 84% | 1014.3 hPa | 0 mm | - | - | - |
| 1778080052 | 12.22° C | 84% | 1014.3 hPa | 0 mm | - | - | - |
| 1778078852 | 12.78° C | 81% | 1012.7 hPa | 0 mm | - | - | - |
| 1778078252 | 12.78° C | 81% | 1012.7 hPa | 0 mm | - | - | - |
| 1778077652 | 12.78° C | 81% | 1012.7 hPa | 0 mm | - | - | - |
| 1778076452 | 12.78° C | 81% | 1012.7 hPa | 0 mm | - | - | - |
| 1778074052 | 12.78° C | 81% | 1011.8 hPa | 0 mm | - | - | - |
| 1778072852 | 12.78° C | 81% | 1011.8 hPa | 0 mm | - | - | - |
| 1778071052 | 12.78° C | 81% | 1011.3 hPa | 0 mm | - | - | - |
| 1778059654 | 16.11° C | 79% | 1009 hPa | 0 mm | - | - | - |
| 1778049452 | 17.78° C | 77% | 1008.6 hPa | 0 mm | - | - | - |
| 1778044653 | 20.56° C | 76% | 1008.1 hPa | 0 mm | - | - | - |
| 1778044052 | 20.56° C | 76% | 1008.1 hPa | 0 mm | - | - | - |
| 1778042252 | 21.67° C | 73% | 1007.9 hPa | 0 mm | - | - | - |
| 1778040452 | 21.67° C | 73% | 1007.9 hPa | 0 mm | - | - | - |
| 1778038652 | 23.89° C | 69% | 1007.1 hPa | 0 mm | - | - | - |
| 1778038052 | 23.89° C | 69% | 1007.1 hPa | 0 mm | - | - | - |
* Rain latest hour (hover to see other rain measurements)
** Current wind speed in m/s (hover to see current wind gust speed)